sensor_id;sensor_type;location;lat;lon;timestamp;pressure;altitude;pressure_sealevel;temperature;humidity
64758;BME280;51193;45.588;5.376;2022-08-03T00:01:21;96201.47;;;26.13;31.54
64758;BME280;51193;45.588;5.376;2022-08-03T00:03:46;96193.00;;;26.08;31.85
64758;BME280;51193;45.588;5.376;2022-08-03T00:06:12;96196.69;;;26.07;32.09
64758;BME280;51193;45.588;5.376;2022-08-03T00:08:37;96195.13;;;26.04;31.76
64758;BME280;51193;45.588;5.376;2022-08-03T00:11:03;96194.44;;;26.02;32.14
64758;BME280;51193;45.588;5.376;2022-08-03T00:13:28;96191.91;;;26.01;31.79
64758;BME280;51193;45.588;5.376;2022-08-03T00:15:54;96201.25;;;25.97;32.27
64758;BME280;51193;45.588;5.376;2022-08-03T00:18:20;96203.34;;;25.93;32.48
64758;BME280;51193;45.588;5.376;2022-08-03T00:20:45;96209.84;;;25.91;32.52
64758;BME280;51193;45.588;5.376;2022-08-03T00:23:11;96203.91;;;25.87;32.28
64758;BME280;51193;45.588;5.376;2022-08-03T00:25:37;96205.19;;;25.83;32.39
64758;BME280;51193;45.588;5.376;2022-08-03T00:28:04;96200.97;;;25.80;32.57
64758;BME280;51193;45.588;5.376;2022-08-03T00:30:30;96201.38;;;25.76;32.64
64758;BME280;51193;45.588;5.376;2022-08-03T00:32:56;96203.09;;;25.77;32.51
64758;BME280;51193;45.588;5.376;2022-08-03T00:35:23;96199.84;;;25.73;32.49
64758;BME280;51193;45.588;5.376;2022-08-03T00:37:48;96195.78;;;25.69;32.75
64758;BME280;51193;45.588;5.376;2022-08-03T00:40:15;96193.22;;;25.67;32.56
64758;BME280;51193;45.588;5.376;2022-08-03T00:42:54;96192.84;;;25.62;32.68
64758;BME280;51193;45.588;5.376;2022-08-03T00:45:23;96186.78;;;25.60;33.03
64758;BME280;51193;45.588;5.376;2022-08-03T00:47:49;96187.06;;;25.57;33.04
64758;BME280;51193;45.588;5.376;2022-08-03T00:50:38;96185.66;;;25.53;32.82
64758;BME280;51193;45.588;5.376;2022-08-03T00:53:05;96183.84;;;25.54;33.16
64758;BME280;51193;45.588;5.376;2022-08-03T00:55:31;96180.28;;;25.53;33.15
64758;BME280;51193;45.588;5.376;2022-08-03T00:57:57;96183.28;;;25.50;33.11
64758;BME280;51193;45.588;5.376;2022-08-03T01:00:25;96178.91;;;25.49;32.91
64758;BME280;51193;45.588;5.376;2022-08-03T01:02:51;96178.19;;;25.47;32.66
64758;BME280;51193;45.588;5.376;2022-08-03T01:05:18;96176.78;;;25.43;33.39
64758;BME280;51193;45.588;5.376;2022-08-03T01:08:05;96173.59;;;25.39;33.53
64758;BME280;51193;45.588;5.376;2022-08-03T01:10:46;96184.56;;;25.36;33.09
64758;BME280;51193;45.588;5.376;2022-08-03T01:15:55;96184.84;;;25.33;33.92
64758;BME280;51193;45.588;5.376;2022-08-03T01:20:52;96180.06;;;25.27;33.98
64758;BME280;51193;45.588;5.376;2022-08-03T01:29:07;96180.03;;;25.17;33.62
64758;BME280;51193;45.588;5.376;2022-08-03T01:31:41;96175.97;;;25.13;33.73
64758;BME280;51193;45.588;5.376;2022-08-03T01:34:10;96175.41;;;25.09;34.10
64758;BME280;51193;45.588;5.376;2022-08-03T01:36:40;96179.91;;;25.09;33.90
64758;BME280;51193;45.588;5.376;2022-08-03T01:39:07;96180.34;;;25.04;34.12
64758;BME280;51193;45.588;5.376;2022-08-03T01:41:57;96179.19;;;24.97;34.56
64758;BME280;51193;45.588;5.376;2022-08-03T01:44:25;96178.22;;;24.88;34.73
64758;BME280;51193;45.588;5.376;2022-08-03T01:46:51;96172.28;;;24.85;34.43
64758;BME280;51193;45.588;5.376;2022-08-03T01:49:18;96177.22;;;24.89;34.81
64758;BME280;51193;45.588;5.376;2022-08-03T01:51:44;96169.06;;;24.91;34.15
64758;BME280;51193;45.588;5.376;2022-08-03T01:54:12;96171.59;;;24.93;34.64
64758;BME280;51193;45.588;5.376;2022-08-03T01:56:39;96168.22;;;24.90;34.41
64758;BME280;51193;45.588;5.376;2022-08-03T01:59:06;96164.72;;;24.90;34.33
64758;BME280;51193;45.588;5.376;2022-08-03T02:01:34;96172.16;;;24.86;34.48
64758;BME280;51193;45.588;5.376;2022-08-03T02:04:01;96174.13;;;24.84;34.84
64758;BME280;51193;45.588;5.376;2022-08-03T02:06:29;96174.25;;;24.83;34.51
64758;BME280;51193;45.588;5.376;2022-08-03T02:08:58;96171.59;;;24.83;34.46
64758;BME280;51193;45.588;5.376;2022-08-03T02:11:25;96167.94;;;24.84;34.67
64758;BME280;51193;45.588;5.376;2022-08-03T02:13:51;96169.91;;;24.82;34.30
64758;BME280;51193;45.588;5.376;2022-08-03T02:16:18;96168.06;;;24.82;34.41
64758;BME280;51193;45.588;5.376;2022-08-03T02:18:44;96161.31;;;24.78;34.42
64758;BME280;51193;45.588;5.376;2022-08-03T02:21:12;96158.91;;;24.75;34.97
64758;BME280;51193;45.588;5.376;2022-08-03T02:23:39;96166.22;;;24.73;34.86
64758;BME280;51193;45.588;5.376;2022-08-03T02:26:07;96164.69;;;24.70;34.85
64758;BME280;51193;45.588;5.376;2022-08-03T02:28:37;96162.13;;;24.69;34.86
64758;BME280;51193;45.588;5.376;2022-08-03T02:31:08;96161.59;;;24.65;35.51
64758;BME280;51193;45.588;5.376;2022-08-03T02:33:38;96159.06;;;24.64;35.53
64758;BME280;51193;45.588;5.376;2022-08-03T02:36:06;96165.53;;;24.61;35.48
64758;BME280;51193;45.588;5.376;2022-08-03T02:38:35;96155.22;;;24.57;35.05
64758;BME280;51193;45.588;5.376;2022-08-03T02:41:06;96163.41;;;24.55;35.49
64758;BME280;51193;45.588;5.376;2022-08-03T02:43:34;96161.69;;;24.54;35.74
64758;BME280;51193;45.588;5.376;2022-08-03T02:46:00;96166.22;;;24.54;35.72
64758;BME280;51193;45.588;5.376;2022-08-03T02:48:30;96168.31;;;24.50;35.42
64758;BME280;51193;45.588;5.376;2022-08-03T02:50:57;96169.41;;;24.47;35.58
64758;BME280;51193;45.588;5.376;2022-08-03T02:53:25;96169.41;;;24.47;35.50
64758;BME280;51193;45.588;5.376;2022-08-03T02:55:51;96166.16;;;24.44;35.61
64758;BME280;51193;45.588;5.376;2022-08-03T02:58:18;96172.63;;;24.41;35.39
64758;BME280;51193;45.588;5.376;2022-08-03T03:00:48;96177.34;;;24.28;35.71
64758;BME280;51193;45.588;5.376;2022-08-03T03:03:16;96168.22;;;24.21;36.20
64758;BME280;51193;45.588;5.376;2022-08-03T03:05:42;96169.75;;;24.23;36.03
64758;BME280;51193;45.588;5.376;2022-08-03T03:08:11;96164.16;;;24.26;35.65
64758;BME280;51193;45.588;5.376;2022-08-03T03:10:38;96165.97;;;24.26;35.83
64758;BME280;51193;45.588;5.376;2022-08-03T03:13:06;96165.25;;;24.24;35.93
64758;BME280;51193;45.588;5.376;2022-08-03T03:15:32;96161.63;;;24.25;35.84
64758;BME280;51193;45.588;5.376;2022-08-03T03:18:01;96175.69;;;24.27;35.73
64758;BME280;51193;45.588;5.376;2022-08-03T03:20:27;96168.50;;;24.27;35.91
64758;BME280;51193;45.588;5.376;2022-08-03T03:22:54;96156.84;;;24.28;36.22
64758;BME280;51193;45.588;5.376;2022-08-03T03:25:20;96161.31;;;24.28;36.19
64758;BME280;51193;45.588;5.376;2022-08-03T03:27:46;96161.19;;;24.29;36.15
64758;BME280;51193;45.588;5.376;2022-08-03T03:30:13;96162.75;;;24.32;35.93
64758;BME280;51193;45.588;5.376;2022-08-03T03:32:38;96166.28;;;24.33;35.99
64758;BME280;51193;45.588;5.376;2022-08-03T03:35:05;96169.22;;;24.29;36.35
64758;BME280;51193;45.588;5.376;2022-08-03T03:37:31;96165.81;;;24.27;36.51
64758;BME280;51193;45.588;5.376;2022-08-03T03:39:57;96162.75;;;24.22;36.13
64758;BME280;51193;45.588;5.376;2022-08-03T03:42:24;96161.88;;;24.22;35.93
64758;BME280;51193;45.588;5.376;2022-08-03T03:44:49;96162.16;;;24.19;36.25
64758;BME280;51193;45.588;5.376;2022-08-03T03:47:15;96162.03;;;24.20;36.32
64758;BME280;51193;45.588;5.376;2022-08-03T03:49:41;96154.56;;;24.24;36.30
64758;BME280;51193;45.588;5.376;2022-08-03T03:52:07;96164.41;;;24.23;35.86
64758;BME280;51193;45.588;5.376;2022-08-03T03:54:40;96156.25;;;24.25;35.96
64758;BME280;51193;45.588;5.376;2022-08-03T03:57:05;96155.13;;;24.27;36.19
64758;BME280;51193;45.588;5.376;2022-08-03T03:59:31;96154.44;;;24.25;36.34
64758;BME280;51193;45.588;5.376;2022-08-03T04:01:57;96156.25;;;24.25;36.53
64758;BME280;51193;45.588;5.376;2022-08-03T04:04:22;96165.25;;;24.24;36.72
64758;BME280;51193;45.588;5.376;2022-08-03T04:07:07;96167.91;;;24.24;36.31
64758;BME280;51193;45.588;5.376;2022-08-03T04:09:50;96167.50;;;24.19;36.56
64758;BME280;51193;45.588;5.376;2022-08-03T04:12:36;96164.25;;;24.15;36.33
64758;BME280;51193;45.588;5.376;2022-08-03T04:15:03;96160.16;;;24.11;36.76
64758;BME280;51193;45.588;5.376;2022-08-03T04:17:31;96169.16;;;24.10;36.75
64758;BME280;51193;45.588;5.376;2022-08-03T04:19:58;96173.78;;;24.08;36.97
64758;BME280;51193;45.588;5.376;2022-08-03T04:22:27;96162.41;;;24.06;37.16
64758;BME280;51193;45.588;5.376;2022-08-03T04:25:06;96176.00;;;24.03;36.78
64758;BME280;51193;45.588;5.376;2022-08-03T04:27:36;96169.69;;;24.04;37.21
64758;BME280;51193;45.588;5.376;2022-08-03T04:30:04;96178.81;;;24.01;37.11
64758;BME280;51193;45.588;5.376;2022-08-03T04:32:30;96175.44;;;23.99;36.62
64758;BME280;51193;45.588;5.376;2022-08-03T04:34:56;96181.47;;;24.01;36.57
64758;BME280;51193;45.588;5.376;2022-08-03T04:37:44;96178.81;;;24.01;36.40
64758;BME280;51193;45.588;5.376;2022-08-03T04:40:20;96189.50;;;24.01;36.54
64758;BME280;51193;45.588;5.376;2022-08-03T04:42:47;96182.19;;;24.03;36.59
64758;BME280;51193;45.588;5.376;2022-08-03T04:45:15;96184.84;;;24.03;36.36
64758;BME280;51193;45.588;5.376;2022-08-03T04:47:41;96193.88;;;24.02;36.40
64758;BME280;51193;45.588;5.376;2022-08-03T04:50:07;96187.53;;;24.03;36.78
64758;BME280;51193;45.588;5.376;2022-08-03T04:52:34;96185.56;;;24.05;36.24
64758;BME280;51193;45.588;5.376;2022-08-03T04:54:59;96194.44;;;24.06;36.75
64758;BME280;51193;45.588;5.376;2022-08-03T04:57:25;96184.31;;;24.09;36.52
64758;BME280;51193;45.588;5.376;2022-08-03T04:59:52;96194.03;;;24.10;36.63
64758;BME280;51193;45.588;5.376;2022-08-03T05:02:21;96195.72;;;24.12;36.62
64758;BME280;51193;45.588;5.376;2022-08-03T05:04:47;96198.38;;;24.12;36.69
64758;BME280;51193;45.588;5.376;2022-08-03T05:07:13;96205.44;;;24.13;37.20
64758;BME280;51193;45.588;5.376;2022-08-03T05:09:39;96204.44;;;24.14;37.17
64758;BME280;51193;45.588;5.376;2022-08-03T05:12:05;96213.31;;;24.14;37.54
64758;BME280;51193;45.588;5.376;2022-08-03T05:14:32;96216.13;;;24.13;37.37
64758;BME280;51193;45.588;5.376;2022-08-03T05:16:57;96217.53;;;24.17;37.58
64758;BME280;51193;45.588;5.376;2022-08-03T05:19:23;96223.59;;;24.19;37.91
64758;BME280;51193;45.588;5.376;2022-08-03T05:21:48;96222.47;;;24.21;37.77
64758;BME280;51193;45.588;5.376;2022-08-03T05:24:14;96224.03;;;24.24;37.55
64758;BME280;51193;45.588;5.376;2022-08-03T05:26:39;96224.50;;;24.29;37.18
64758;BME280;51193;45.588;5.376;2022-08-03T05:29:04;96231.69;;;24.38;37.19
64758;BME280;51193;45.588;5.376;2022-08-03T05:31:30;96230.03;;;24.47;37.44
64758;BME280;51193;45.588;5.376;2022-08-03T05:33:56;96228.06;;;24.49;37.21
64758;BME280;51193;45.588;5.376;2022-08-03T05:36:27;96228.66;;;24.53;37.40
64758;BME280;51193;45.588;5.376;2022-08-03T05:38:53;96228.09;;;24.59;37.48
64758;BME280;51193;45.588;5.376;2022-08-03T05:41:18;96236.00;;;24.60;37.41
64758;BME280;51193;45.588;5.376;2022-08-03T05:43:43;96239.25;;;24.64;37.22
64758;BME280;51193;45.588;5.376;2022-08-03T05:46:09;96237.00;;;24.69;37.15
64758;BME280;51193;45.588;5.376;2022-08-03T05:48:34;96237.44;;;24.74;37.41
64758;BME280;51193;45.588;5.376;2022-08-03T05:51:00;96232.69;;;24.78;37.24
64758;BME280;51193;45.588;5.376;2022-08-03T05:53:25;96235.91;;;24.81;36.84
64758;BME280;51193;45.588;5.376;2022-08-03T05:55:51;96240.00;;;24.85;36.90
64758;BME280;51193;45.588;5.376;2022-08-03T05:58:16;96244.38;;;24.86;37.04
64758;BME280;51193;45.588;5.376;2022-08-03T06:00:42;96243.25;;;24.89;37.37
64758;BME280;51193;45.588;5.376;2022-08-03T06:03:07;96248.16;;;24.94;37.29
64758;BME280;51193;45.588;5.376;2022-08-03T06:05:33;96246.19;;;24.96;36.95
64758;BME280;51193;45.588;5.376;2022-08-03T06:08:03;96243.13;;;25.00;36.91
64758;BME280;51193;45.588;5.376;2022-08-03T06:10:29;96253.41;;;25.05;36.39
64758;BME280;51193;45.588;5.376;2022-08-03T06:12:55;96254.13;;;25.07;36.15
64758;BME280;51193;45.588;5.376;2022-08-03T06:15:20;96249.34;;;25.10;35.83
64758;BME280;51193;45.588;5.376;2022-08-03T06:17:49;96250.44;;;25.08;35.61
64758;BME280;51193;45.588;5.376;2022-08-03T06:20:17;96250.44;;;25.08;35.78
64758;BME280;51193;45.588;5.376;2022-08-03T06:22:44;96249.03;;;25.04;35.43
64758;BME280;51193;45.588;5.376;2022-08-03T06:25:09;96254.25;;;25.05;35.21
64758;BME280;51193;45.588;5.376;2022-08-03T06:27:35;96251.31;;;25.08;35.50
64758;BME280;51193;45.588;5.376;2022-08-03T06:30:05;96256.50;;;25.10;35.36
64758;BME280;51193;45.588;5.376;2022-08-03T06:32:31;96253.97;;;25.08;35.70
64758;BME280;51193;45.588;5.376;2022-08-03T06:34:56;96261.84;;;25.10;35.61
64758;BME280;51193;45.588;5.376;2022-08-03T06:37:21;96265.94;;;25.14;35.12
64758;BME280;51193;45.588;5.376;2022-08-03T06:39:48;96264.53;;;25.10;35.41
64758;BME280;51193;45.588;5.376;2022-08-03T06:42:14;96260.59;;;25.14;35.30
64758;BME280;51193;45.588;5.376;2022-08-03T06:44:42;96267.63;;;25.15;34.96
64758;BME280;51193;45.588;5.376;2022-08-03T06:47:07;96268.91;;;25.11;35.23
64758;BME280;51193;45.588;5.376;2022-08-03T06:49:32;96271.44;;;25.13;35.82
64758;BME280;51193;45.588;5.376;2022-08-03T06:51:58;96269.31;;;25.16;35.75
64758;BME280;51193;45.588;5.376;2022-08-03T06:54:24;96273.69;;;25.17;35.74
64758;BME280;51193;45.588;5.376;2022-08-03T06:56:50;96274.53;;;25.18;35.43
64758;BME280;51193;45.588;5.376;2022-08-03T06:59:15;96278.03;;;25.18;35.68
64758;BME280;51193;45.588;5.376;2022-08-03T07:01:48;96274.31;;;25.21;35.65
64758;BME280;51193;45.588;5.376;2022-08-03T07:04:14;96282.88;;;25.24;35.47
64758;BME280;51193;45.588;5.376;2022-08-03T07:06:39;96278.94;;;25.28;35.07
64758;BME280;51193;45.588;5.376;2022-08-03T07:09:05;96280.06;;;25.36;35.31
64758;BME280;51193;45.588;5.376;2022-08-03T07:11:30;96276.13;;;25.40;34.63
64758;BME280;51193;45.588;5.376;2022-08-03T07:13:56;96276.13;;;25.40;34.48
64758;BME280;51193;45.588;5.376;2022-08-03T07:16:21;96283.59;;;25.46;34.79
64758;BME280;51193;45.588;5.376;2022-08-03T07:18:47;96288.09;;;25.55;34.77
64758;BME280;51193;45.588;5.376;2022-08-03T07:21:13;96292.75;;;25.63;35.08
64758;BME280;51193;45.588;5.376;2022-08-03T07:23:40;96291.91;;;25.72;34.60
64758;BME280;51193;45.588;5.376;2022-08-03T07:26:05;96292.19;;;25.79;34.95
64758;BME280;51193;45.588;5.376;2022-08-03T07:28:31;96296.66;;;25.88;35.00
64758;BME280;51193;45.588;5.376;2022-08-03T07:30:56;96297.81;;;25.95;34.49
64758;BME280;51193;45.588;5.376;2022-08-03T07:33:22;96295.72;;;25.99;34.76
64758;BME280;51193;45.588;5.376;2022-08-03T07:35:47;96298.50;;;26.07;34.54
64758;BME280;51193;45.588;5.376;2022-08-03T07:38:12;96300.75;;;26.12;34.28
64758;BME280;51193;45.588;5.376;2022-08-03T07:40:38;96296.34;;;26.20;34.13
64758;BME280;51193;45.588;5.376;2022-08-03T07:43:03;96296.78;;;26.25;33.36
64758;BME280;51193;45.588;5.376;2022-08-03T07:45:30;96300.84;;;26.29;33.91
64758;BME280;51193;45.588;5.376;2022-08-03T07:47:55;96311.25;;;26.42;33.79
64758;BME280;51193;45.588;5.376;2022-08-03T07:50:24;96307.97;;;26.48;33.62
64758;BME280;51193;45.588;5.376;2022-08-03T07:52:50;96296.66;;;26.55;33.22
64758;BME280;51193;45.588;5.376;2022-08-03T07:55:19;96304.84;;;26.63;33.50
64758;BME280;51193;45.588;5.376;2022-08-03T07:57:45;96300.41;;;26.72;33.44
64758;BME280;51193;45.588;5.376;2022-08-03T08:00:16;96304.63;;;26.74;33.26
64758;BME280;51193;45.588;5.376;2022-08-03T08:02:43;96304.44;;;26.85;33.31
64758;BME280;51193;45.588;5.376;2022-08-03T08:05:09;96298.97;;;27.05;33.04
64758;BME280;51193;45.588;5.376;2022-08-03T08:07:35;96294.63;;;27.22;32.74
64758;BME280;51193;45.588;5.376;2022-08-03T08:10:01;96299.66;;;27.35;32.40
64758;BME280;51193;45.588;5.376;2022-08-03T08:12:27;96304.63;;;27.47;32.44
64758;BME280;51193;45.588;5.376;2022-08-03T08:14:52;96298.59;;;27.63;32.54
64758;BME280;51193;45.588;5.376;2022-08-03T08:17:18;96296.50;;;27.75;32.27
64758;BME280;51193;45.588;5.376;2022-08-03T08:19:44;96297.81;;;27.89;31.88
64758;BME280;51193;45.588;5.376;2022-08-03T08:22:09;96294.41;;;28.05;31.74
64758;BME280;51193;45.588;5.376;2022-08-03T08:24:34;96295.53;;;28.20;30.97
64758;BME280;51193;45.588;5.376;2022-08-03T08:27:00;96297.94;;;28.32;30.83
64758;BME280;51193;45.588;5.376;2022-08-03T08:29:26;96302.19;;;28.42;30.93
64758;BME280;51193;45.588;5.376;2022-08-03T08:31:51;96298.94;;;28.57;30.78
64758;BME280;51193;45.588;5.376;2022-08-03T08:34:16;96302.38;;;28.75;30.41
64758;BME280;51193;45.588;5.376;2022-08-03T08:36:42;96306.47;;;28.87;30.08
64758;BME280;51193;45.588;5.376;2022-08-03T08:39:07;96299.97;;;28.98;29.73
64758;BME280;51193;45.588;5.376;2022-08-03T08:41:33;96303.50;;;28.99;30.11
64758;BME280;51193;45.588;5.376;2022-08-03T08:44:02;96306.91;;;29.09;29.28
64758;BME280;51193;45.588;5.376;2022-08-03T08:46:31;96296.72;;;29.29;29.65
64758;BME280;51193;45.588;5.376;2022-08-03T08:48:58;96298.91;;;29.34;29.81
64758;BME280;51193;45.588;5.376;2022-08-03T08:51:29;96300.59;;;29.43;29.55
64758;BME280;51193;45.588;5.376;2022-08-03T08:53:56;96300.63;;;29.51;29.28
64758;BME280;51193;45.588;5.376;2022-08-03T08:56:25;96302.66;;;29.65;29.25
64758;BME280;51193;45.588;5.376;2022-08-03T08:58:53;96299.66;;;29.85;28.81
64758;BME280;51193;45.588;5.376;2022-08-03T09:01:20;96298.97;;;30.07;28.52
64758;BME280;51193;45.588;5.376;2022-08-03T09:03:46;96296.59;;;30.21;28.38
64758;BME280;51193;45.588;5.376;2022-08-03T09:06:12;96303.84;;;30.28;28.22
64758;BME280;51193;45.588;5.376;2022-08-03T09:08:37;96298.63;;;30.35;28.09
64758;BME280;51193;45.588;5.376;2022-08-03T09:11:03;96293.22;;;30.43;28.02
64758;BME280;51193;45.588;5.376;2022-08-03T09:13:28;96300.78;;;30.56;27.78
64758;BME280;51193;45.588;5.376;2022-08-03T09:18:37;96296.47;;;30.78;27.13
64758;BME280;51193;45.588;5.376;2022-08-03T09:21:13;96297.75;;;30.99;27.18
64758;BME280;51193;45.588;5.376;2022-08-03T09:23:53;96293.47;;;31.13;26.63
64758;BME280;51193;45.588;5.376;2022-08-03T09:26:26;96297.38;;;31.10;26.37
64758;BME280;51193;45.588;5.376;2022-08-03T09:28:57;96297.88;;;31.14;26.75
64758;BME280;51193;45.588;5.376;2022-08-03T09:31:40;96290.72;;;31.21;26.47
64758;BME280;51193;45.588;5.376;2022-08-03T09:34:08;96288.25;;;31.42;26.11
64758;BME280;51193;45.588;5.376;2022-08-03T09:36:42;96293.59;;;31.59;26.31
64758;BME280;51193;45.588;5.376;2022-08-03T09:39:16;96299.09;;;31.65;26.36
64758;BME280;51193;45.588;5.376;2022-08-03T09:41:44;96302.03;;;31.79;26.22
64758;BME280;51193;45.588;5.376;2022-08-03T09:44:09;96286.78;;;31.86;25.68
64758;BME280;51193;45.588;5.376;2022-08-03T09:46:49;96288.19;;;31.97;25.57
64758;BME280;51193;45.588;5.376;2022-08-03T09:49:14;96292.47;;;32.14;25.21
64758;BME280;51193;45.588;5.376;2022-08-03T09:51:40;96290.53;;;32.38;24.72
64758;BME280;51193;45.588;5.376;2022-08-03T09:54:06;96290.03;;;32.57;25.04
64758;BME280;51193;45.588;5.376;2022-08-03T09:56:45;96290.69;;;32.74;25.12
64758;BME280;51193;45.588;5.376;2022-08-03T09:59:13;96281.22;;;32.85;24.74
64758;BME280;51193;45.588;5.376;2022-08-03T10:01:39;96287.38;;;32.94;24.21
64758;BME280;51193;45.588;5.376;2022-08-03T10:04:14;96282.72;;;33.02;23.76
64758;BME280;51193;45.588;5.376;2022-08-03T10:06:45;96280.59;;;33.13;23.76
64758;BME280;51193;45.588;5.376;2022-08-03T10:09:25;96283.28;;;33.13;23.69
64758;BME280;51193;45.588;5.376;2022-08-03T10:11:50;96286.84;;;33.13;23.91
64758;BME280;51193;45.588;5.376;2022-08-03T10:14:16;96287.19;;;33.10;23.93
64758;BME280;51193;45.588;5.376;2022-08-03T10:16:46;96283.34;;;33.19;23.91
64758;BME280;51193;45.588;5.376;2022-08-03T10:19:12;96288.91;;;33.33;23.88
64758;BME280;51193;45.588;5.376;2022-08-03T10:21:41;96276.47;;;33.38;23.69
64758;BME280;51193;45.588;5.376;2022-08-03T10:24:11;96275.88;;;33.43;23.71
64758;BME280;51193;45.588;5.376;2022-08-03T10:26:39;96281.91;;;33.38;24.00
64758;BME280;51193;45.588;5.376;2022-08-03T10:29:11;96270.88;;;33.40;24.09
64758;BME280;51193;45.588;5.376;2022-08-03T10:31:42;96266.28;;;33.40;23.74
64758;BME280;51193;45.588;5.376;2022-08-03T10:34:18;96266.81;;;33.51;24.25
64758;BME280;51193;45.588;5.376;2022-08-03T10:36:47;96278.56;;;33.58;24.26
64758;BME280;51193;45.588;5.376;2022-08-03T10:39:17;96265.75;;;33.66;23.68
64758;BME280;51193;45.588;5.376;2022-08-03T10:41:44;96259.66;;;33.86;24.06
64758;BME280;51193;45.588;5.376;2022-08-03T10:44:16;96260.28;;;33.88;24.47
64758;BME280;51193;45.588;5.376;2022-08-03T10:46:43;96260.50;;;33.86;24.25
64758;BME280;51193;45.588;5.376;2022-08-03T10:49:14;96264.59;;;34.04;23.65
64758;BME280;51193;45.588;5.376;2022-08-03T10:51:44;96262.03;;;34.17;23.59
64758;BME280;51193;45.588;5.376;2022-08-03T10:57:49;96257.28;;;34.26;23.57
64758;BME280;51193;45.588;5.376;2022-08-03T11:00:19;96262.53;;;34.06;23.51
64758;BME280;51193;45.588;5.376;2022-08-03T11:03:07;96255.75;;;34.17;23.39
64758;BME280;51193;45.588;5.376;2022-08-03T11:05:40;96247.88;;;34.22;23.25
64758;BME280;51193;45.588;5.376;2022-08-03T11:08:28;96242.13;;;34.38;23.71
64758;BME280;51193;45.588;5.376;2022-08-03T11:10:58;96240.59;;;34.64;23.33
64758;BME280;51193;45.588;5.376;2022-08-03T11:13:25;96241.72;;;34.76;22.95
64758;BME280;51193;45.588;5.376;2022-08-03T11:15:54;96238.25;;;34.89;22.99
64758;BME280;51193;45.588;5.376;2022-08-03T11:18:21;96247.69;;;35.00;22.87
64758;BME280;51193;45.588;5.376;2022-08-03T11:23:16;96238.41;;;35.29;22.84
64758;BME280;51193;45.588;5.376;2022-08-03T11:26:14;96240.09;;;35.43;22.21
64758;BME280;51193;45.588;5.376;2022-08-03T11:28:42;96230.34;;;35.69;21.59
64758;BME280;51193;45.588;5.376;2022-08-03T11:34:07;96220.31;;;35.70;22.01
64758;BME280;51193;45.588;5.376;2022-08-03T11:39:40;96222.75;;;35.51;22.18
64758;BME280;51193;45.588;5.376;2022-08-03T11:44:51;96211.88;;;35.51;22.92
64758;BME280;51193;45.588;5.376;2022-08-03T11:47:16;96206.25;;;35.53;22.61
64758;BME280;51193;45.588;5.376;2022-08-03T11:49:48;96208.16;;;35.65;22.43
64758;BME280;51193;45.588;5.376;2022-08-03T11:52:15;96200.81;;;35.73;22.63
64758;BME280;51193;45.588;5.376;2022-08-03T11:54:42;96204.16;;;35.75;22.41
64758;BME280;51193;45.588;5.376;2022-08-03T11:57:07;96203.34;;;35.68;22.18
64758;BME280;51193;45.588;5.376;2022-08-03T11:59:34;96196.44;;;35.65;22.52
64758;BME280;51193;45.588;5.376;2022-08-03T12:02:10;96194.34;;;35.74;22.27
64758;BME280;51193;45.588;5.376;2022-08-03T12:05:08;96193.31;;;35.81;22.70
64758;BME280;51193;45.588;5.376;2022-08-03T12:07:44;96192.03;;;35.71;22.28
64758;BME280;51193;45.588;5.376;2022-08-03T12:10:14;96189.75;;;35.74;21.56
64758;BME280;51193;45.588;5.376;2022-08-03T12:12:40;96191.38;;;35.62;21.95
64758;BME280;51193;45.588;5.376;2022-08-03T12:15:07;96187.41;;;35.64;21.79
64758;BME280;51193;45.588;5.376;2022-08-03T12:19:59;96196.66;;;35.90;21.74
64758;BME280;51193;45.588;5.376;2022-08-03T12:22:37;96184.47;;;35.99;21.04
64758;BME280;51193;45.588;5.376;2022-08-03T12:25:04;96181.34;;;36.16;21.14
64758;BME280;51193;45.588;5.376;2022-08-03T12:27:29;96180.91;;;36.39;21.16
64758;BME280;51193;45.588;5.376;2022-08-03T12:29:57;96175.00;;;36.42;20.61
64758;BME280;51193;45.588;5.376;2022-08-03T12:32:23;96174.59;;;36.45;20.70
64758;BME280;51193;45.588;5.376;2022-08-03T12:34:50;96172.63;;;36.59;20.48
64758;BME280;51193;45.588;5.376;2022-08-03T12:37:22;96176.16;;;36.79;20.44
64758;BME280;51193;45.588;5.376;2022-08-03T12:39:55;96165.38;;;36.98;20.12
64758;BME280;51193;45.588;5.376;2022-08-03T12:42:21;96175.53;;;36.84;20.18
64758;BME280;51193;45.588;5.376;2022-08-03T12:44:46;96167.19;;;36.72;20.19
64758;BME280;51193;45.588;5.376;2022-08-03T12:47:13;96166.53;;;36.77;19.90
64758;BME280;51193;45.588;5.376;2022-08-03T12:49:50;96167.75;;;36.81;20.33
64758;BME280;51193;45.588;5.376;2022-08-03T12:52:17;96172.34;;;36.87;20.27
64758;BME280;51193;45.588;5.376;2022-08-03T12:54:53;96175.66;;;36.96;19.52
64758;BME280;51193;45.588;5.376;2022-08-03T12:57:20;96172.13;;;36.89;19.54
64758;BME280;51193;45.588;5.376;2022-08-03T12:59:45;96171.88;;;36.97;19.48
64758;BME280;51193;45.588;5.376;2022-08-03T13:02:17;96164.56;;;36.91;19.75
64758;BME280;51193;45.588;5.376;2022-08-03T13:04:43;96156.09;;;37.05;19.36
64758;BME280;51193;45.588;5.376;2022-08-03T13:07:10;96158.13;;;37.23;19.44
64758;BME280;51193;45.588;5.376;2022-08-03T13:09:50;96158.78;;;37.19;18.82
64758;BME280;51193;45.588;5.376;2022-08-03T13:12:19;96148.03;;;37.24;18.71
64758;BME280;51193;45.588;5.376;2022-08-03T13:14:48;96153.34;;;37.19;18.76
64758;BME280;51193;45.588;5.376;2022-08-03T13:17:13;96161.84;;;36.91;19.20
64758;BME280;51193;45.588;5.376;2022-08-03T13:19:41;96150.25;;;37.02;18.87
64758;BME280;51193;45.588;5.376;2022-08-03T13:22:26;96146.41;;;37.16;18.97
64758;BME280;51193;45.588;5.376;2022-08-03T13:24:55;96145.41;;;37.42;18.87
64758;BME280;51193;45.588;5.376;2022-08-03T13:27:22;96150.50;;;37.57;18.64
64758;BME280;51193;45.588;5.376;2022-08-03T13:29:47;96147.50;;;37.40;18.98
64758;BME280;51193;45.588;5.376;2022-08-03T13:32:13;96140.81;;;37.36;19.04
64758;BME280;51193;45.588;5.376;2022-08-03T13:34:38;96140.41;;;37.33;18.83
64758;BME280;51193;45.588;5.376;2022-08-03T13:37:04;96132.56;;;37.50;18.76